Greenbush, Michigan
Current Conditions -  °F | °C
As of 11:14 AM on Thursday 30 Oct 2014 (Local Time) from KOSC Reporting Station
Overcast Overcast  
Wind Chill: 35°   Ceiling: 3600
Heat Index: 39°   Visibility: 10mi
Dew Point: 35°   Wind: 6mph
Humidity: 84%   Direction: 250°WSW
Pressure: 30.11"   Gusts: NA
Location:  44.59°N, 83.32°W
Report Text: KOSC 301514Z AUTO 25005KT 10SM OVC036 03/01 A3011 RMK AO2 T00390014
Loading
Personal Weather Stations






























Interactive Weather Map
Tropical Storm Tracking
New forecast layout! Learn more

10-Day Weather Forecast

Advertisements
Track Severe Weather on mobile